sensor_id;sensor_type;location;lat;lon;timestamp;temperature;humidity
71551;DHT22;59367;48.414;9.872;2023-03-01T00:00:15;3.231479645;56.13250732
71551;DHT22;59367;48.414;9.872;2023-03-01T00:01:24;3.258182526;56.17980957
71551;DHT22;59367;48.414;9.872;2023-03-01T00:02:32;3.274204254;56.13861084
71551;DHT22;59367;48.414;9.872;2023-03-01T00:03:39;3.274204254;56.20269775
71551;DHT22;59367;48.414;9.872;2023-03-01T00:04:47;3.274204254;56.15997314
71551;DHT22;59367;48.414;9.872;2023-03-01T00:05:54;3.287555695;56.21490479
71551;DHT22;59367;48.414;9.872;2023-03-01T00:07:02;3.274204254;56.13861084
71551;DHT22;59367;48.414;9.872;2023-03-01T00:08:09;3.287555695;56.08673096
71551;DHT22;59367;48.414;9.872;2023-03-01T00:09:17;3.274204254;56.0836792
71551;DHT22;59367;48.414;9.872;2023-03-01T00:10:24;3.314258575;55.94177246
71551;DHT22;59367;48.414;9.872;2023-03-01T00:11:33;3.330280304;55.85784912
71551;DHT22;59367;48.414;9.872;2023-03-01T00:12:40;3.330280304;56.05010986
71551;DHT22;59367;48.414;9.872;2023-03-01T00:13:48;3.314258575;56.06994629
71551;DHT22;59367;48.414;9.872;2023-03-01T00:14:56;3.330280304;55.95397949
71551;DHT22;59367;48.414;9.872;2023-03-01T00:16:05;3.300907135;55.92803955
71551;DHT22;59367;48.414;9.872;2023-03-01T00:17:13;3.300907135;55.89599609
71551;DHT22;59367;48.414;9.872;2023-03-01T00:18:20;3.314258575;55.84564209
71551;DHT22;59367;48.414;9.872;2023-03-01T00:19:27;3.300907135;55.79986572
71551;DHT22;59367;48.414;9.872;2023-03-01T00:20:35;3.330280304;55.97686768
71551;DHT22;59367;48.414;9.872;2023-03-01T00:21:44;3.330280304;55.98602295
71551;DHT22;59367;48.414;9.872;2023-03-01T00:22:54;3.359653473;56.12792969
71551;DHT22;59367;48.414;9.872;2023-03-01T00:24:02;3.300907135;56.23931885
71551;DHT22;59367;48.414;9.872;2023-03-01T00:25:12;3.314258575;56.21948242
71551;DHT22;59367;48.414;9.872;2023-03-01T00:26:21;3.330280304;56.03790283
71551;DHT22;59367;48.414;9.872;2023-03-01T00:27:31;3.346302032;55.95550537
71551;DHT22;59367;48.414;9.872;2023-03-01T00:28:39;3.359653473;55.92651367
71551;DHT22;59367;48.414;9.872;2023-03-01T00:29:46;3.359653473;55.9463501
71551;DHT22;59367;48.414;9.872;2023-03-01T00:30:53;3.346302032;56.09588623
71551;DHT22;59367;48.414;9.872;2023-03-01T00:32:01;3.402381897;55.97381592
71551;DHT22;59367;48.414;9.872;2023-03-01T00:33:08;3.402381897;56.05926514
71551;DHT22;59367;48.414;9.872;2023-03-01T00:34:15;3.415733337;56.13708496
71551;DHT22;59367;48.414;9.872;2023-03-01T00:35:23;3.445106506;56.08825684
71551;DHT22;59367;48.414;9.872;2023-03-01T00:36:32;3.458457947;55.81207275
71551;DHT22;59367;48.414;9.872;2023-03-01T00:37:40;3.458457947;55.70220947
71551;DHT22;59367;48.414;9.872;2023-03-01T00:38:48;3.487831116;55.62133789
71551;DHT22;59367;48.414;9.872;2023-03-01T00:39:55;3.431755066;55.52825928
71551;DHT22;59367;48.414;9.872;2023-03-01T00:41:10;3.431755066;55.65643311
71551;DHT22;59367;48.414;9.872;2023-03-01T00:42:18;3.431755066;55.6350708
71551;DHT22;59367;48.414;9.872;2023-03-01T00:43:25;3.445106506;55.6060791
71551;DHT22;59367;48.414;9.872;2023-03-01T00:44:33;3.389030457;55.68389893
71551;DHT22;59367;48.414;9.872;2023-03-01T00:45:40;3.415733337;55.74951172
71551;DHT22;59367;48.414;9.872;2023-03-01T00:46:47;3.445106506;55.6930542
71551;DHT22;59367;48.414;9.872;2023-03-01T00:47:55;3.458457947;55.66101074
71551;DHT22;59367;48.414;9.872;2023-03-01T00:49:02;3.458457947;55.63964844
71551;DHT22;59367;48.414;9.872;2023-03-01T00:50:11;3.471809387;55.6427002
71551;DHT22;59367;48.414;9.872;2023-03-01T00:51:20;3.445106506;55.6060791
71551;DHT22;59367;48.414;9.872;2023-03-01T00:52:28;3.445106506;55.68084717
71551;DHT22;59367;48.414;9.872;2023-03-01T00:53:35;3.415733337;55.60150146
71551;DHT22;59367;48.414;9.872;2023-03-01T00:54:43;3.458457947;55.68389893
71551;DHT22;59367;48.414;9.872;2023-03-01T00:55:50;3.431755066;55.7434082
71551;DHT22;59367;48.414;9.872;2023-03-01T00:56:58;3.445106506;55.73425293
71551;DHT22;59367;48.414;9.872;2023-03-01T00:58:05;3.431755066;55.81817627
71551;DHT22;59367;48.414;9.872;2023-03-01T00:59:12;3.445106506;55.84106445
71551;DHT22;59367;48.414;9.872;2023-03-01T01:00:21;3.415733337;55.66558838
71551;DHT22;59367;48.414;9.872;2023-03-01T01:01:30;3.431755066;55.75256348
71551;DHT22;59367;48.414;9.872;2023-03-01T01:02:39;3.431755066;55.78460693
71551;DHT22;59367;48.414;9.872;2023-03-01T01:03:48;3.415733337;55.74951172
71551;DHT22;59367;48.414;9.872;2023-03-01T01:04:56;3.402381897;55.69458008
71551;DHT22;59367;48.414;9.872;2023-03-01T01:06:03;3.373004913;55.75714111
71551;DHT22;59367;48.414;9.872;2023-03-01T01:07:10;3.359653473;55.7434082
71551;DHT22;59367;48.414;9.872;2023-03-01T01:08:18;3.314258575;55.91888428
71551;DHT22;59367;48.414;9.872;2023-03-01T01:09:25;3.314258575;55.89904785
71551;DHT22;59367;48.414;9.872;2023-03-01T01:10:32;3.314258575;55.91888428
71551;DHT22;59367;48.414;9.872;2023-03-01T01:11:40;3.314258575;55.99517822
71551;DHT22;59367;48.414;9.872;2023-03-01T01:12:47;3.330280304;55.88989258
71551;DHT22;59367;48.414;9.872;2023-03-01T01:13:55;3.287555695;56.11877441
71551;DHT22;59367;48.414;9.872;2023-03-01T01:15:03;3.330280304;55.98602295
71551;DHT22;59367;48.414;9.872;2023-03-01T01:16:12;3.346302032;56.05163574
71551;DHT22;59367;48.414;9.872;2023-03-01T01:17:19;3.346302032;55.98754883
71551;DHT22;59367;48.414;9.872;2023-03-01T01:18:27;3.373004913;56.03637695
71551;DHT22;59367;48.414;9.872;2023-03-01T01:19:34;3.359653473;56.08673096
71551;DHT22;59367;48.414;9.872;2023-03-01T01:20:42;3.389030457;55.909729
71551;DHT22;59367;48.414;9.872;2023-03-01T01:21:49;3.415733337;55.84869385
71551;DHT22;59367;48.414;9.872;2023-03-01T01:22:56;3.402381897;55.72967529
71551;DHT22;59367;48.414;9.872;2023-03-01T01:24:06;3.471809387;55.65185547
71551;DHT22;59367;48.414;9.872;2023-03-01T01:25:14;3.458457947;55.61676025
71551;DHT22;59367;48.414;9.872;2023-03-01T01:26:23;3.431755066;55.60302734
71551;DHT22;59367;48.414;9.872;2023-03-01T01:27:31;3.445106506;55.64880371
71551;DHT22;59367;48.414;9.872;2023-03-01T01:28:38;3.402381897;55.79071045
71551;DHT22;59367;48.414;9.872;2023-03-01T01:29:46;3.431755066;55.9677124
71551;DHT22;59367;48.414;9.872;2023-03-01T01:30:53;3.431755066;55.91430664
71551;DHT22;59367;48.414;9.872;2023-03-01T01:32:00;3.415733337;55.67626953
71551;DHT22;59367;48.414;9.872;2023-03-01T01:33:08;3.445106506;55.58319092
71551;DHT22;59367;48.414;9.872;2023-03-01T01:34:17;3.458457947;55.62896729
71551;DHT22;59367;48.414;9.872;2023-03-01T01:35:25;3.445106506;55.48706055
71551;DHT22;59367;48.414;9.872;2023-03-01T01:36:32;3.431755066;55.62438965
71551;DHT22;59367;48.414;9.872;2023-03-01T01:37:40;3.458457947;55.5847168
71551;DHT22;59367;48.414;9.872;2023-03-01T01:38:48;3.458457947;55.59692383
71551;DHT22;59367;48.414;9.872;2023-03-01T01:39:55;3.487831116;55.56945801
71551;DHT22;59367;48.414;9.872;2023-03-01T01:41:03;3.487831116;55.49316406
71551;DHT22;59367;48.414;9.872;2023-03-01T01:42:16;3.471809387;55.5557251
71551;DHT22;59367;48.414;9.872;2023-03-01T01:43:29;3.458457947;55.52368164
71551;DHT22;59367;48.414;9.872;2023-03-01T01:44:37;3.445106506;55.62591553
71551;DHT22;59367;48.414;9.872;2023-03-01T01:45:44;3.458457947;55.55267334
71551;DHT22;59367;48.414;9.872;2023-03-01T01:46:56;3.487831116;55.67474365
71551;DHT22;59367;48.414;9.872;2023-03-01T01:48:09;3.514533997;55.58319092
71551;DHT22;59367;48.414;9.872;2023-03-01T01:49:23;3.514533997;55.49621582
71551;DHT22;59367;48.414;9.872;2023-03-01T01:50:33;3.527885437;55.41381836
71551;DHT22;59367;48.414;9.872;2023-03-01T01:51:43;3.514533997;55.36804199
71551;DHT22;59367;48.414;9.872;2023-03-01T01:52:52;3.527885437;55.48706055
71551;DHT22;59367;48.414;9.872;2023-03-01T01:54:02;3.527885437;55.57556152
71551;DHT22;59367;48.414;9.872;2023-03-01T01:55:13;3.527885437;55.52062988
71551;DHT22;59367;48.414;9.872;2023-03-01T01:56:23;3.501182556;55.6350708
71551;DHT22;59367;48.414;9.872;2023-03-01T01:57:36;3.527885437;55.55267334
71551;DHT22;59367;48.414;9.872;2023-03-01T01:58:45;3.543907166;55.54351807
71551;DHT22;59367;48.414;9.872;2023-03-01T01:59:57;3.543907166;55.47943115
71551;DHT22;59367;48.414;9.872;2023-03-01T02:01:06;3.570610046;55.69763184
71551;DHT22;59367;48.414;9.872;2023-03-01T02:02:15;3.527885437;55.56488037
71551;DHT22;59367;48.414;9.872;2023-03-01T02:03:26;3.487831116;55.49316406
71551;DHT22;59367;48.414;9.872;2023-03-01T02:04:35;3.501182556;55.44128418
71551;DHT22;59367;48.414;9.872;2023-03-01T02:05:46;3.471809387;55.51452637
71551;DHT22;59367;48.414;9.872;2023-03-01T02:06:58;3.471809387;55.68389893
71551;DHT22;59367;48.414;9.872;2023-03-01T02:08:07;3.471809387;55.75866699
71551;DHT22;59367;48.414;9.872;2023-03-01T02:09:16;3.471809387;55.73883057
71551;DHT22;59367;48.414;9.872;2023-03-01T02:10:26;3.471809387;55.81207275
71551;DHT22;59367;48.414;9.872;2023-03-01T02:11:35;3.471809387;55.75866699
71551;DHT22;59367;48.414;9.872;2023-03-01T02:12:43;3.487831116;55.87768555
71551;DHT22;59367;48.414;9.872;2023-03-01T02:13:51;3.487831116;55.81359863
71551;DHT22;59367;48.414;9.872;2023-03-01T02:15:00;3.501182556;55.7434082
71551;DHT22;59367;48.414;9.872;2023-03-01T02:16:12;3.471809387;55.77087402
71551;DHT22;59367;48.414;9.872;2023-03-01T02:17:21;3.501182556;55.84869385
71551;DHT22;59367;48.414;9.872;2023-03-01T02:18:29;3.501182556;55.8807373
71551;DHT22;59367;48.414;9.872;2023-03-01T02:19:48;3.458457947;55.82122803
71551;DHT22;59367;48.414;9.872;2023-03-01T02:21:10;3.501182556;55.81665039
71551;DHT22;59367;48.414;9.872;2023-03-01T02:22:25;3.471809387;56.00585938
71551;DHT22;59367;48.414;9.872;2023-03-01T02:23:34;3.487831116;56.01806641
71551;DHT22;59367;48.414;9.872;2023-03-01T02:24:45;3.501182556;56.01959229
71551;DHT22;59367;48.414;9.872;2023-03-01T02:26:00;3.487831116;56.13708496
71551;DHT22;59367;48.414;9.872;2023-03-01T02:27:09;3.501182556;56.1706543
71551;DHT22;59367;48.414;9.872;2023-03-01T02:29:21;3.458457947;56.10961914
71551;DHT22;59367;48.414;9.872;2023-03-01T02:30:29;3.487831116;56.06079102
71551;DHT22;59367;48.414;9.872;2023-03-01T02:31:37;3.471809387;56.10046387
71551;DHT22;59367;48.414;9.872;2023-03-01T02:32:46;3.445106506;56.17370605
71551;DHT22;59367;48.414;9.872;2023-03-01T02:33:54;3.431755066;56.15997314
71551;DHT22;59367;48.414;9.872;2023-03-01T02:35:02;3.458457947;56.15234375
71551;DHT22;59367;48.414;9.872;2023-03-01T02:36:12;3.445106506;56.2789917
71551;DHT22;59367;48.414;9.872;2023-03-01T02:37:22;3.431755066;56.13861084
71551;DHT22;59367;48.414;9.872;2023-03-01T02:38:31;3.445106506;56.18286133
71551;DHT22;59367;48.414;9.872;2023-03-01T02:39:42;3.458457947;56.26068115
71551;DHT22;59367;48.414;9.872;2023-03-01T02:40:53;3.431755066;56.2789917
71551;DHT22;59367;48.414;9.872;2023-03-01T02:42:01;3.445106506;56.3659668
71551;DHT22;59367;48.414;9.872;2023-03-01T02:43:12;3.445106506;56.38580322
71551;DHT22;59367;48.414;9.872;2023-03-01T02:44:22;3.487831116;56.42547607
71551;DHT22;59367;48.414;9.872;2023-03-01T02:45:31;3.471809387;56.43463135
71551;DHT22;59367;48.414;9.872;2023-03-01T02:46:48;3.471809387;56.28356934
71551;DHT22;59367;48.414;9.872;2023-03-01T02:48:00;3.501182556;56.25610352
71551;DHT22;59367;48.414;9.872;2023-03-01T02:49:25;3.458457947;56.24847412
71551;DHT22;59367;48.414;9.872;2023-03-01T02:50:51;3.514533997;56.18286133
71551;DHT22;59367;48.414;9.872;2023-03-01T02:52:21;3.514533997;55.97839355
71551;DHT22;59367;48.414;9.872;2023-03-01T02:53:38;3.487831116;56.08215332
71551;DHT22;59367;48.414;9.872;2023-03-01T02:54:50;3.514533997;56.11877441
71551;DHT22;59367;48.414;9.872;2023-03-01T02:55:58;3.487831116;56.14624023
71551;DHT22;59367;48.414;9.872;2023-03-01T02:57:05;3.458457947;56.36749268
71551;DHT22;59367;48.414;9.872;2023-03-01T02:58:14;3.501182556;56.29882813
71551;DHT22;59367;48.414;9.872;2023-03-01T02:59:24;3.514533997;56.28967285
71551;DHT22;59367;48.414;9.872;2023-03-01T03:00:36;3.501182556;56.32019043
71551;DHT22;59367;48.414;9.872;2023-03-01T03:01:45;3.501182556;56.26678467
71551;DHT22;59367;48.414;9.872;2023-03-01T03:02:54;3.471809387;56.07910156
71551;DHT22;59367;48.414;9.872;2023-03-01T03:04:03;3.514533997;56.08673096
71551;DHT22;59367;48.414;9.872;2023-03-01T03:05:15;3.487831116;56.2210083
71551;DHT22;59367;48.414;9.872;2023-03-01T03:06:22;3.487831116;56.20117188
71551;DHT22;59367;48.414;9.872;2023-03-01T03:07:30;3.501182556;56.15997314
71551;DHT22;59367;48.414;9.872;2023-03-01T03:08:37;3.514533997;56.1706543
71551;DHT22;59367;48.414;9.872;2023-03-01T03:09:44;3.514533997;56.22558594
71551;DHT22;59367;48.414;9.872;2023-03-01T03:10:51;3.471809387;56.21948242
71551;DHT22;59367;48.414;9.872;2023-03-01T03:11:59;3.501182556;56.34002686
71551;DHT22;59367;48.414;9.872;2023-03-01T03:13:08;3.501182556;56.1706543
71551;DHT22;59367;48.414;9.872;2023-03-01T03:14:17;3.487831116;56.26525879
71551;DHT22;59367;48.414;9.872;2023-03-01T03:15:25;3.501182556;56.37207031
71551;DHT22;59367;48.414;9.872;2023-03-01T03:16:33;3.501182556;56.35223389
71551;DHT22;59367;48.414;9.872;2023-03-01T03:17:42;3.514533997;56.26983643
71551;DHT22;59367;48.414;9.872;2023-03-01T03:18:49;3.501182556;56.23321533
71551;DHT22;59367;48.414;9.872;2023-03-01T03:19:57;3.487831116;56.27593994
71551;DHT22;59367;48.414;9.872;2023-03-01T03:21:04;3.487831116;56.38122559
71551;DHT22;59367;48.414;9.872;2023-03-01T03:22:14;3.471809387;56.21948242
71551;DHT22;59367;48.414;9.872;2023-03-01T03:23:22;3.458457947;56.2713623
71551;DHT22;59367;48.414;9.872;2023-03-01T03:24:30;3.431755066;56.48193359
71551;DHT22;59367;48.414;9.872;2023-03-01T03:25:37;3.431755066;56.39801025
71551;DHT22;59367;48.414;9.872;2023-03-01T03:26:45;3.458457947;56.43157959
71551;DHT22;59367;48.414;9.872;2023-03-01T03:27:53;3.445106506;56.2789917
71551;DHT22;59367;48.414;9.872;2023-03-01T03:29:01;3.471809387;56.3583374
71551;DHT22;59367;48.414;9.872;2023-03-01T03:30:11;3.487831116;56.29730225
71551;DHT22;59367;48.414;9.872;2023-03-01T03:31:19;3.471809387;56.20727539
71551;DHT22;59367;48.414;9.872;2023-03-01T03:32:26;3.487831116;56.12487793
71551;DHT22;59367;48.414;9.872;2023-03-01T03:33:33;3.471809387;56.11114502
71551;DHT22;59367;48.414;9.872;2023-03-01T03:34:40;3.458457947;56.0043335
71551;DHT22;59367;48.414;9.872;2023-03-01T03:35:48;3.431755066;56.14776611
71551;DHT22;59367;48.414;9.872;2023-03-01T03:37:00;3.458457947;56.33544922
71551;DHT22;59367;48.414;9.872;2023-03-01T03:38:09;3.445106506;56.24847412
71551;DHT22;59367;48.414;9.872;2023-03-01T03:39:16;3.445106506;56.17370605
71551;DHT22;59367;48.414;9.872;2023-03-01T03:40:24;3.445106506;56.16149902
71551;DHT22;59367;48.414;9.872;2023-03-01T03:41:31;3.445106506;56.22558594
71551;DHT22;59367;48.414;9.872;2023-03-01T03:42:41;3.431755066;56.06384277
71551;DHT22;59367;48.414;9.872;2023-03-01T03:43:48;3.415733337;56.16912842
71551;DHT22;59367;48.414;9.872;2023-03-01T03:44:55;3.445106506;56.08825684
71551;DHT22;59367;48.414;9.872;2023-03-01T03:46:03;3.445106506;56.22558594
71551;DHT22;59367;48.414;9.872;2023-03-01T03:47:10;3.458457947;56.16455078
71551;DHT22;59367;48.414;9.872;2023-03-01T03:48:18;3.431755066;56.09588623
71551;DHT22;59367;48.414;9.872;2023-03-01T03:49:26;3.458457947;56.17523193
71551;DHT22;59367;48.414;9.872;2023-03-01T03:50:33;3.471809387;56.14318848
71551;DHT22;59367;48.414;9.872;2023-03-01T03:51:41;3.431755066;56.11877441
71551;DHT22;59367;48.414;9.872;2023-03-01T03:52:48;3.431755066;56.01043701
71551;DHT22;59367;48.414;9.872;2023-03-01T03:53:55;3.431755066;56.17980957
71551;DHT22;59367;48.414;9.872;2023-03-01T03:55:02;3.471809387;56.19812012
71551;DHT22;59367;48.414;9.872;2023-03-01T03:56:11;3.431755066;56.06384277
71551;DHT22;59367;48.414;9.872;2023-03-01T03:57:19;3.458457947;56.04705811
71551;DHT22;59367;48.414;9.872;2023-03-01T03:58:27;3.431755066;56.06384277
71551;DHT22;59367;48.414;9.872;2023-03-01T03:59:34;3.445106506;56.07757568
71551;DHT22;59367;48.414;9.872;2023-03-01T04:00:42;3.402381897;55.95397949
71551;DHT22;59367;48.414;9.872;2023-03-01T04:01:50;3.402381897;56.11419678
71551;DHT22;59367;48.414;9.872;2023-03-01T04:02:57;3.415733337;56.13708496
71551;DHT22;59367;48.414;9.872;2023-03-01T04:04:04;3.402381897;56.03790283
71551;DHT22;59367;48.414;9.872;2023-03-01T04:05:14;3.431755066;55.9463501
71551;DHT22;59367;48.414;9.872;2023-03-01T04:06:22;3.402381897;55.84564209
71551;DHT22;59367;48.414;9.872;2023-03-01T04:07:29;3.402381897;55.84564209
71551;DHT22;59367;48.414;9.872;2023-03-01T04:08:36;3.415733337;55.96466064
71551;DHT22;59367;48.414;9.872;2023-03-01T04:09:44;3.402381897;55.97381592
71551;DHT22;59367;48.414;9.872;2023-03-01T04:10:52;3.415733337;55.99975586
71551;DHT22;59367;48.414;9.872;2023-03-01T04:12:03;3.389030457;55.86395264
71551;DHT22;59367;48.414;9.872;2023-03-01T04:13:13;3.389030457;55.95092773
71551;DHT22;59367;48.414;9.872;2023-03-01T04:14:21;3.373004913;56.12030029
71551;DHT22;59367;48.414;9.872;2023-03-01T04:15:29;3.402381897;55.87768555
71551;DHT22;59367;48.414;9.872;2023-03-01T04:16:37;3.402381897;55.94177246
71551;DHT22;59367;48.414;9.872;2023-03-01T04:17:45;3.415733337;55.82580566
71551;DHT22;59367;48.414;9.872;2023-03-01T04:18:53;3.415733337;55.88989258
71551;DHT22;59367;48.414;9.872;2023-03-01T04:20:00;3.445106506;55.71289063
71551;DHT22;59367;48.414;9.872;2023-03-01T04:21:07;3.458457947;55.6930542
71551;DHT22;59367;48.414;9.872;2023-03-01T04:22:15;3.415733337;55.74035645
71551;DHT22;59367;48.414;9.872;2023-03-01T04:23:23;3.402381897;55.67474365
71551;DHT22;59367;48.414;9.872;2023-03-01T04:24:30;3.415733337;55.80444336
71551;DHT22;59367;48.414;9.872;2023-03-01T04:25:37;3.458457947;55.73577881
71551;DHT22;59367;48.414;9.872;2023-03-01T04:26:45;3.471809387;55.71594238
71551;DHT22;59367;48.414;9.872;2023-03-01T04:27:52;3.431755066;55.59387207
71551;DHT22;59367;48.414;9.872;2023-03-01T04:28:59;3.415733337;55.61218262
71551;DHT22;59367;48.414;9.872;2023-03-01T04:30:08;3.445106506;55.63812256
71551;DHT22;59367;48.414;9.872;2023-03-01T04:31:17;3.431755066;55.61218262
71551;DHT22;59367;48.414;9.872;2023-03-01T04:32:25;3.402381897;55.70678711
71551;DHT22;59367;48.414;9.872;2023-03-01T04:33:32;3.389030457;55.75866699
71551;DHT22;59367;48.414;9.872;2023-03-01T04:34:39;3.359653473;55.69915771
71551;DHT22;59367;48.414;9.872;2023-03-01T04:35:46;3.389030457;55.79071045
71551;DHT22;59367;48.414;9.872;2023-03-01T04:36:53;3.373004913;55.77697754
71551;DHT22;59367;48.414;9.872;2023-03-01T04:38:01;3.359653473;55.99975586
71551;DHT22;59367;48.414;9.872;2023-03-01T04:39:08;3.359653473;55.99060059
71551;DHT22;59367;48.414;9.872;2023-03-01T04:40:16;3.402381897;56.00585938
71551;DHT22;59367;48.414;9.872;2023-03-01T04:41:27;3.402381897;55.82275391
71551;DHT22;59367;48.414;9.872;2023-03-01T04:42:34;3.389030457;55.65185547
71551;DHT22;59367;48.414;9.872;2023-03-01T04:43:41;3.389030457;55.83190918
71551;DHT22;59367;48.414;9.872;2023-03-01T04:44:49;3.359653473;55.99060059
71551;DHT22;59367;48.414;9.872;2023-03-01T04:45:56;3.373004913;56.12945557
71551;DHT22;59367;48.414;9.872;2023-03-01T04:47:06;3.402381897;55.94177246
71551;DHT22;59367;48.414;9.872;2023-03-01T04:48:14;3.402381897;55.86700439
71551;DHT22;59367;48.414;9.872;2023-03-01T04:49:21;3.415733337;55.79376221
71551;DHT22;59367;48.414;9.872;2023-03-01T04:50:28;3.389030457;55.86395264
71551;DHT22;59367;48.414;9.872;2023-03-01T04:51:35;3.359653473;55.91430664
71551;DHT22;59367;48.414;9.872;2023-03-01T04:52:43;3.415733337;55.99975586
71551;DHT22;59367;48.414;9.872;2023-03-01T04:53:51;3.402381897;55.98602295
71551;DHT22;59367;48.414;9.872;2023-03-01T04:54:58;3.415733337;55.84869385
71551;DHT22;59367;48.414;9.872;2023-03-01T04:56:06;3.415733337;55.79376221
71551;DHT22;59367;48.414;9.872;2023-03-01T04:57:13;3.415733337;55.86853027
71551;DHT22;59367;48.414;9.872;2023-03-01T04:58:20;3.415733337;55.82580566
71551;DHT22;59367;48.414;9.872;2023-03-01T04:59:28;3.415733337;55.90057373
71551;DHT22;59367;48.414;9.872;2023-03-01T05:00:35;3.415733337;55.92193604
71551;DHT22;59367;48.414;9.872;2023-03-01T05:01:43;3.431755066;55.8807373
71551;DHT22;59367;48.414;9.872;2023-03-01T05:02:51;3.431755066;55.75256348
71551;DHT22;59367;48.414;9.872;2023-03-01T05:04:00;3.431755066;55.77545166
71551;DHT22;59367;48.414;9.872;2023-03-01T05:05:08;3.445106506;55.84106445
71551;DHT22;59367;48.414;9.872;2023-03-01T05:06:15;3.471809387;55.78155518
71551;DHT22;59367;48.414;9.872;2023-03-01T05:07:23;3.471809387;55.909729
71551;DHT22;59367;48.414;9.872;2023-03-01T05:08:30;3.501182556;55.7723999
71551;DHT22;59367;48.414;9.872;2023-03-01T05:09:37;3.514533997;55.77545166
71551;DHT22;59367;48.414;9.872;2023-03-01T05:10:45;3.543907166;55.68389893
71551;DHT22;59367;48.414;9.872;2023-03-01T05:11:53;3.527885437;55.6930542
71551;DHT22;59367;48.414;9.872;2023-03-01T05:13:01;3.501182556;55.66558838
71551;DHT22;59367;48.414;9.872;2023-03-01T05:14:09;3.501182556;55.62438965
71551;DHT22;59367;48.414;9.872;2023-03-01T05:15:16;3.487831116;55.70678711
71551;DHT22;59367;48.414;9.872;2023-03-01T05:16:24;3.487831116;55.71746826
71551;DHT22;59367;48.414;9.872;2023-03-01T05:17:31;3.487831116;55.69763184
71551;DHT22;59367;48.414;9.872;2023-03-01T05:18:38;3.487831116;55.69763184
71551;DHT22;59367;48.414;9.872;2023-03-01T05:19:46;3.458457947;55.84106445
71551;DHT22;59367;48.414;9.872;2023-03-01T05:20:53;3.471809387;55.81207275
71551;DHT22;59367;48.414;9.872;2023-03-01T05:22:01;3.445106506;55.77697754
71551;DHT22;59367;48.414;9.872;2023-03-01T05:23:08;3.471809387;55.74798584
71551;DHT22;59367;48.414;9.872;2023-03-01T05:24:15;3.527885437;55.76629639
71551;DHT22;59367;48.414;9.872;2023-03-01T05:25:22;3.527885437;55.74493408
71551;DHT22;59367;48.414;9.872;2023-03-01T05:26:29;3.471809387;55.86700439
71551;DHT22;59367;48.414;9.872;2023-03-01T05:27:37;3.501182556;55.7723999
71551;DHT22;59367;48.414;9.872;2023-03-01T05:28:45;3.487831116;55.7723999
71551;DHT22;59367;48.414;9.872;2023-03-01T05:29:52;3.501182556;55.7723999
71551;DHT22;59367;48.414;9.872;2023-03-01T05:31:00;3.487831116;55.61218262
71551;DHT22;59367;48.414;9.872;2023-03-01T05:32:07;3.471809387;55.65185547
71551;DHT22;59367;48.414;9.872;2023-03-01T05:33:15;3.487831116;55.74035645
71551;DHT22;59367;48.414;9.872;2023-03-01T05:34:23;3.501182556;55.75256348
71551;DHT22;59367;48.414;9.872;2023-03-01T05:35:32;3.501182556;55.80444336
71551;DHT22;59367;48.414;9.872;2023-03-01T05:36:39;3.487831116;55.72967529
71551;DHT22;59367;48.414;9.872;2023-03-01T05:37:49;3.501182556;55.7434082
71551;DHT22;59367;48.414;9.872;2023-03-01T05:38:56;3.514533997;55.58319092
71551;DHT22;59367;48.414;9.872;2023-03-01T05:40:03;3.471809387;55.65185547
71551;DHT22;59367;48.414;9.872;2023-03-01T05:41:17;3.445106506;55.70220947
71551;DHT22;59367;48.414;9.872;2023-03-01T05:42:24;3.431755066;55.67932129
71551;DHT22;59367;48.414;9.872;2023-03-01T05:43:33;3.415733337;55.67626953
71551;DHT22;59367;48.414;9.872;2023-03-01T05:44:41;3.431755066;55.78460693
71551;DHT22;59367;48.414;9.872;2023-03-01T05:45:48;3.415733337;55.83648682
71551;DHT22;59367;48.414;9.872;2023-03-01T05:46:56;3.415733337;55.80444336
71551;DHT22;59367;48.414;9.872;2023-03-01T05:48:03;3.359653473;55.91430664
71551;DHT22;59367;48.414;9.872;2023-03-01T05:49:11;3.373004913;55.90820313
71551;DHT22;59367;48.414;9.872;2023-03-01T05:50:21;3.402381897;55.93109131
71551;DHT22;59367;48.414;9.872;2023-03-01T05:51:28;3.389030457;56.07910156
71551;DHT22;59367;48.414;9.872;2023-03-01T05:52:36;3.373004913;56.00128174
71551;DHT22;59367;48.414;9.872;2023-03-01T05:53:43;3.359653473;56.07452393
71551;DHT22;59367;48.414;9.872;2023-03-01T05:54:50;3.346302032;55.91278076
71551;DHT22;59367;48.414;9.872;2023-03-01T05:55:57;3.314258575;55.89904785
71551;DHT22;59367;48.414;9.872;2023-03-01T05:57:05;3.359653473;55.83953857
71551;DHT22;59367;48.414;9.872;2023-03-01T05:58:15;3.314258575;55.82275391
71551;DHT22;59367;48.414;9.872;2023-03-01T05:59:23;3.314258575;55.79071045
71551;DHT22;59367;48.414;9.872;2023-03-01T06:00:30;3.330280304;55.81359863
71551;DHT22;59367;48.414;9.872;2023-03-01T06:01:38;3.346302032;55.89141846
71551;DHT22;59367;48.414;9.872;2023-03-01T06:02:46;3.300907135;55.94940186
71551;DHT22;59367;48.414;9.872;2023-03-01T06:03:53;3.300907135;55.75714111
71551;DHT22;59367;48.414;9.872;2023-03-01T06:05:00;3.274204254;55.89447021